Forside
METAR-TAF:

METAR-TAF

Lufthavne :

Grinnell, Iowa, USA

Breddekreds: 41-42-35N, længdekreds: 092-44-09W, højde: 307 m

Aktuelle vejr

Denne rapport blev lavet for 34 minutter siden, kl. 06:55 UTC
Vind 9 kt fra sydsydvest
Temperatur 6°C
Fugtighed 70%
Tryk 1016 hPa
Sigt: 16.1 km
skyfri

METAR: KGGI 290655Z AUTO 21009KT 10SM CLR 06/01 A3000 RMK AO2 T00590007

Tid: 01:29 (07:29 UTC)


TAF: fraværende

Vejrobservationer og prognoser fra mere end 4000 lufthavne (METAR og TAF).

De gule og røde prikker repræsenterer de meteorologiske stationer.

Flyt musen over at se navnet på stationen.

Så klik over at se vejr observationer og prognoser.

At skifte det kort: Klik på de grønne knapper med et sort kors for at zoome ind; på den grønne knap med en bindestreg for at zoome ud; eller på de grønne pile for tilstødende kort.


METAR-TAF: